Time,TemperatureF,DewpointF,PressureIn,WindDirection,WindDirectionDegrees,WindSpeedMPH,WindSpeedGustMPH,Humidity,HourlyPrecipIn,Conditions,Clouds,dailyrainin,SolarRadiationWatts/m^2,SoftwareType,DateUTC
2013-02-03 00:01:00,26.0,23.0,-100.00,SSE,164,0.0,0.0,87,-99.99,,,0.20,0.000000,,2013-02-03 07:01:00,
2013-02-03 00:32:00,27.0,22.0,-100.00,South,175,0.0,3.0,81,-99.99,,,0.20,0.000000,,2013-02-03 07:32:00,
2013-02-03 00:42:00,27.0,22.0,-100.00,South,175,0.0,3.0,81,-99.99,,,0.20,0.000000,,2013-02-03 07:42:00,
2013-02-03 00:52:00,27.0,22.0,-100.00,South,175,0.0,3.0,81,-99.99,,,0.20,0.000000,,2013-02-03 07:52:00,
2013-02-03 01:01:00,27.0,22.0,-100.00,South,175,0.0,3.0,81,-99.99,,,0.20,0.000000,,2013-02-03 08:01:00,
2013-02-03 01:32:00,26.0,22.0,-100.00,SW,225,0.0,4.0,83,0.00,,,0.20,0.000000,,2013-02-03 08:32:00,
2013-02-03 01:42:00,26.0,22.0,-100.00,SW,225,0.0,4.0,83,0.00,,,0.20,0.000000,,2013-02-03 08:42:00,
2013-02-03 01:52:00,26.0,22.0,-100.00,SW,225,0.0,4.0,83,0.00,,,0.20,0.000000,,2013-02-03 08:52:00,
2013-02-03 02:02:00,26.0,22.0,-100.00,SW,225,0.0,4.0,83,0.00,,,0.20,0.000000,,2013-02-03 09:02:00,
2013-02-03 02:32:00,27.0,22.0,-100.00,West,270,0.0,3.0,82,-99.99,,,0.20,0.000000,,2013-02-03 09:32:00,
2013-02-03 02:42:00,27.0,22.0,-100.00,West,270,0.0,3.0,82,-99.99,,,0.20,0.000000,,2013-02-03 09:42:00,
2013-02-03 02:52:00,27.0,22.0,-100.00,West,270,0.0,3.0,82,-99.99,,,0.20,0.000000,,2013-02-03 09:52:00,
2013-02-03 03:01:00,27.0,22.0,-100.00,West,270,0.0,3.0,82,-99.99,,,0.20,0.000000,,2013-02-03 10:01:00,
2013-02-03 03:32:00,29.0,24.0,-100.00,WSW,242,0.0,3.0,80,0.00,,,0.20,0.000000,,2013-02-03 10:32:00,
2013-02-03 03:42:00,29.0,24.0,-100.00,WSW,242,0.0,3.0,80,0.00,,,0.20,0.000000,,2013-02-03 10:42:00,
2013-02-03 03:52:00,29.0,24.0,-100.00,WSW,242,0.0,3.0,80,0.00,,,0.20,0.000000,,2013-02-03 10:52:00,
2013-02-03 04:01:00,29.0,24.0,-100.00,WSW,242,0.0,3.0,80,0.00,,,0.20,0.000000,,2013-02-03 11:01:00,
2013-02-03 04:32:00,29.0,23.0,-100.00,South,188,0.0,0.0,79,0.00,,,0.20,0.000000,,2013-02-03 11:32:00,
2013-02-03 04:42:00,29.0,23.0,-100.00,South,188,0.0,0.0,79,0.00,,,0.20,0.000000,,2013-02-03 11:42:00,
2013-02-03 04:52:00,29.0,23.0,-100.00,South,188,0.0,0.0,79,0.00,,,0.20,0.000000,,2013-02-03 11:52:00,
2013-02-03 05:02:00,29.0,23.0,-100.00,South,188,0.0,0.0,79,0.00,,,0.20,0.000000,,2013-02-03 12:02:00,
2013-02-03 05:32:00,29.0,23.0,-100.00,SSW,192,0.0,3.0,79,0.00,,,0.20,0.000000,,2013-02-03 12:32:00,
2013-02-03 05:42:00,29.0,23.0,-100.00,SSW,192,0.0,3.0,79,0.00,,,0.20,0.000000,,2013-02-03 12:42:00,
2013-02-03 05:53:00,29.0,23.0,-100.00,SSW,192,0.0,3.0,79,0.00,,,0.20,0.000000,,2013-02-03 12:53:00,
2013-02-03 06:02:00,29.0,23.0,-100.00,SSW,192,0.0,3.0,79,0.00,,,0.20,0.000000,,2013-02-03 13:02:00,
2013-02-03 06:32:00,29.0,24.0,-100.00,South,184,0.0,0.0,82,0.00,,,0.20,0.000000,,2013-02-03 13:32:00,
2013-02-03 06:42:00,29.0,24.0,-100.00,South,184,0.0,0.0,82,0.00,,,0.20,0.000000,,2013-02-03 13:42:00,
2013-02-03 06:52:00,29.0,24.0,-100.00,South,184,0.0,0.0,82,0.00,,,0.20,0.000000,,2013-02-03 13:52:00,
2013-02-03 07:02:00,29.0,24.0,-100.00,South,184,0.0,0.0,82,0.00,,,0.20,0.000000,,2013-02-03 14:02:00,
2013-02-03 07:32:00,30.0,24.0,-100.00,SSE,168,0.0,4.0,78,0.00,,,0.20,0.000000,,2013-02-03 14:32:00,
2013-02-03 07:42:00,30.0,24.0,-100.00,SSE,168,0.0,4.0,78,0.00,,,0.20,0.000000,,2013-02-03 14:42:00,
2013-02-03 07:52:00,30.0,24.0,-100.00,SSE,168,0.0,4.0,78,0.00,,,0.20,0.000000,,2013-02-03 14:52:00,
2013-02-03 08:02:00,30.0,24.0,-100.00,SSE,168,0.0,4.0,78,0.00,,,0.20,0.000000,,2013-02-03 15:02:00,
2013-02-03 08:33:00,32.0,23.0,-100.00,SW,214,0.0,3.0,70,0.00,,,0.20,6.000000,,2013-02-03 15:33:00,
2013-02-03 08:42:00,32.0,23.0,-100.00,SW,214,0.0,3.0,70,0.00,,,0.20,6.000000,,2013-02-03 15:42:00,
2013-02-03 08:52:00,32.0,23.0,-100.00,SW,214,0.0,3.0,70,0.00,,,0.20,6.000000,,2013-02-03 15:52:00,
2013-02-03 09:02:00,32.0,23.0,-100.00,SW,214,0.0,3.0,70,0.00,,,0.20,6.000000,,2013-02-03 16:02:00,
2013-02-03 09:33:00,38.0,20.0,-100.00,South,174,1.0,2.0,48,0.00,,,0.20,80.000000,,2013-02-03 16:33:00,
2013-02-03 09:42:00,38.0,20.0,-100.00,South,174,1.0,2.0,48,0.00,,,0.20,80.000000,,2013-02-03 16:42:00,
2013-02-03 09:52:00,38.0,20.0,-100.00,South,174,1.0,2.0,48,0.00,,,0.20,80.000000,,2013-02-03 16:52:00,
2013-02-03 10:02:00,38.0,20.0,-100.00,South,174,1.0,2.0,48,0.00,,,0.20,80.000000,,2013-02-03 17:02:00,
2013-02-03 10:32:00,45.0,20.0,-100.00,SE,125,0.0,7.0,36,0.00,,,0.20,186.000000,,2013-02-03 17:32:00,
2013-02-03 10:42:00,45.0,20.0,-100.00,SE,125,0.0,7.0,36,0.00,,,0.20,186.000000,,2013-02-03 17:42:00,
2013-02-03 10:52:00,45.0,20.0,-100.00,SE,125,0.0,7.0,36,0.00,,,0.20,186.000000,,2013-02-03 17:52:00,
2013-02-03 11:02:00,45.0,20.0,-100.00,SE,125,0.0,7.0,36,0.00,,,0.20,186.000000,,2013-02-03 18:02:00,
2013-02-03 11:23:00,50.0,18.0,-100.00,NW,313,0.0,9.0,28,0.01,,,0.21,211.000000,,2013-02-03 18:23:00,
2013-02-03 11:33:00,50.0,18.0,-100.00,NW,313,0.0,9.0,28,0.01,,,0.21,211.000000,,2013-02-03 18:33:00,
2013-02-03 11:42:00,50.0,18.0,-100.00,NW,313,0.0,9.0,28,0.01,,,0.21,211.000000,,2013-02-03 18:42:00,
2013-02-03 11:52:00,50.0,18.0,-100.00,NW,313,0.0,9.0,28,0.01,,,0.21,211.000000,,2013-02-03 18:52:00,
2013-02-03 12:01:00,50.0,18.0,-100.00,NW,313,0.0,9.0,28,0.01,,,0.21,211.000000,,2013-02-03 19:01:00,
2013-02-03 12:32:00,48.0,21.0,-100.00,South,178,4.0,8.0,34,-99.99,,,0.22,364.000000,,2013-02-03 19:32:00,
2013-02-03 12:42:00,48.0,21.0,-100.00,South,178,4.0,8.0,34,-99.99,,,0.22,364.000000,,2013-02-03 19:42:00,
2013-02-03 12:52:00,48.0,21.0,-100.00,South,178,4.0,8.0,34,-99.99,,,0.22,364.000000,,2013-02-03 19:52:00,
2013-02-03 13:01:00,48.0,21.0,-100.00,South,178,4.0,8.0,34,-99.99,,,0.22,364.000000,,2013-02-03 20:01:00,
2013-02-03 13:33:00,48.0,22.0,-100.00,SSW,198,7.0,14.0,35,0.02,,,0.19,319.000000,,2013-02-03 20:33:00,
2013-02-03 13:42:00,48.0,22.0,-100.00,SSW,198,7.0,14.0,35,0.02,,,0.19,319.000000,,2013-02-03 20:42:00,
2013-02-03 13:52:00,48.0,22.0,-100.00,SSW,198,7.0,14.0,35,0.02,,,0.19,319.000000,,2013-02-03 20:52:00,
2013-02-03 14:02:00,48.0,22.0,-100.00,SSW,198,7.0,14.0,35,0.02,,,0.19,319.000000,,2013-02-03 21:02:00,
2013-02-03 14:33:00,43.0,25.0,-100.00,South,188,2.0,19.0,48,0.01,,,0.15,237.000000,,2013-02-03 21:33:00,
2013-02-03 14:42:00,43.0,25.0,-100.00,South,188,2.0,19.0,48,0.01,,,0.15,237.000000,,2013-02-03 21:42:00,
2013-02-03 14:52:00,43.0,25.0,-100.00,South,188,2.0,19.0,48,0.01,,,0.15,237.000000,,2013-02-03 21:52:00,
2013-02-03 15:01:00,43.0,25.0,-100.00,South,188,2.0,19.0,48,0.01,,,0.15,237.000000,,2013-02-03 22:01:00,
2013-02-03 15:32:00,46.0,26.0,-100.00,North,1,0.0,15.0,46,0.01,,,0.12,262.000000,,2013-02-03 22:32:00,
2013-02-03 15:42:00,46.0,26.0,-100.00,North,1,0.0,15.0,46,0.01,,,0.12,262.000000,,2013-02-03 22:42:00,
2013-02-03 15:52:00,46.0,26.0,-100.00,North,1,0.0,15.0,46,0.01,,,0.12,262.000000,,2013-02-03 22:52:00,
2013-02-03 16:01:00,46.0,26.0,-100.00,North,1,0.0,15.0,46,0.01,,,0.12,262.000000,,2013-02-03 23:01:00,
2013-02-03 16:32:00,44.0,29.0,-100.00,SE,142,0.0,9.0,56,0.01,,,0.10,166.000000,,2013-02-03 23:32:00,
2013-02-03 16:42:00,44.0,29.0,-100.00,SE,142,0.0,9.0,56,0.01,,,0.10,166.000000,,2013-02-03 23:42:00,
2013-02-03 16:52:00,44.0,29.0,-100.00,SE,142,0.0,9.0,56,0.01,,,0.10,166.000000,,2013-02-03 23:52:00,
2013-02-03 17:01:00,44.0,29.0,-100.00,SE,142,0.0,9.0,56,0.01,,,0.10,166.000000,,2013-02-04 00:01:00,
2013-02-03 17:32:00,38.0,27.0,-100.00,ESE,121,8.0,11.0,65,0.00,,,0.09,81.000000,,2013-02-04 00:32:00,
2013-02-03 17:42:00,38.0,27.0,-100.00,ESE,121,8.0,11.0,65,0.00,,,0.09,81.000000,,2013-02-04 00:42:00,
2013-02-03 17:52:00,38.0,27.0,-100.00,ESE,121,8.0,11.0,65,0.00,,,0.09,81.000000,,2013-02-04 00:52:00,
2013-02-03 18:01:00,38.0,27.0,-100.00,ESE,121,8.0,11.0,65,0.00,,,0.09,81.000000,,2013-02-04 01:01:00,
2013-02-03 18:21:00,34.0,27.0,-100.00,NE,46,3.0,13.0,76,0.00,,,0.08,19.000000,,2013-02-04 01:21:00,
2013-02-03 18:32:00,34.0,27.0,-100.00,NE,46,3.0,13.0,76,0.00,,,0.08,19.000000,,2013-02-04 01:32:00,
2013-02-03 18:42:00,34.0,27.0,-100.00,NE,46,3.0,13.0,76,0.00,,,0.08,19.000000,,2013-02-04 01:42:00,
2013-02-03 18:52:00,34.0,27.0,-100.00,NE,46,3.0,13.0,76,0.00,,,0.08,19.000000,,2013-02-04 01:52:00,
2013-02-03 19:01:00,34.0,27.0,-100.00,NE,46,3.0,13.0,76,0.00,,,0.08,19.000000,,2013-02-04 02:01:00,
2013-02-03 19:22:00,33.0,28.0,-100.00,East,89,0.0,8.0,81,0.00,,,0.08,0.000000,,2013-02-04 02:22:00,
2013-02-03 19:32:00,33.0,28.0,-100.00,East,89,0.0,8.0,81,0.00,,,0.08,0.000000,,2013-02-04 02:32:00,
2013-02-03 19:42:00,33.0,28.0,-100.00,East,89,0.0,8.0,81,0.00,,,0.08,0.000000,,2013-02-04 02:42:00,
2013-02-03 19:52:00,33.0,28.0,-100.00,East,89,0.0,8.0,81,0.00,,,0.08,0.000000,,2013-02-04 02:52:00,
2013-02-03 20:01:00,33.0,28.0,-100.00,East,89,0.0,8.0,81,0.00,,,0.08,0.000000,,2013-02-04 03:01:00,
2013-02-03 20:32:00,33.0,30.0,-100.00,NNW,347,0.0,4.0,87,0.00,,,0.08,0.000000,,2013-02-04 03:32:00,
2013-02-03 20:42:00,33.0,30.0,-100.00,NNW,347,0.0,4.0,87,0.00,,,0.08,0.000000,,2013-02-04 03:42:00,
2013-02-03 20:52:00,33.0,30.0,-100.00,NNW,347,0.0,4.0,87,0.00,,,0.08,0.000000,,2013-02-04 03:52:00,
2013-02-03 21:01:00,33.0,30.0,-100.00,NNW,347,0.0,4.0,87,0.00,,,0.08,0.000000,,2013-02-04 04:01:00,
2013-02-03 21:03:00,31.0,28.0,-100.00,SW,214,0.0,3.0,90,0.00,,,0.08,0.000000,,2013-02-04 04:03:00,
2013-02-03 21:32:00,31.0,28.0,-100.00,SW,214,0.0,3.0,90,0.00,,,0.08,0.000000,,2013-02-04 04:32:00,
2013-02-03 21:42:00,31.0,28.0,-100.00,SW,214,0.0,3.0,90,0.00,,,0.08,0.000000,,2013-02-04 04:42:00,
2013-02-03 21:52:00,31.0,28.0,-100.00,SW,214,0.0,3.0,90,0.00,,,0.08,0.000000,,2013-02-04 04:52:00,
2013-02-03 22:22:00,30.0,28.0,-100.00,NW,308,0.0,5.0,94,0.00,,,0.08,0.000000,,2013-02-04 05:22:00,
2013-02-03 22:33:00,30.0,28.0,-100.00,NW,308,0.0,5.0,94,0.00,,,0.08,0.000000,,2013-02-04 05:33:00,
2013-02-03 22:42:00,30.0,28.0,-100.00,NW,308,0.0,5.0,94,0.00,,,0.08,0.000000,,2013-02-04 05:42:00,
2013-02-03 22:52:00,30.0,28.0,-100.00,NW,308,0.0,5.0,94,0.00,,,0.08,0.000000,,2013-02-04 05:52:00,
2013-02-03 23:01:00,30.0,28.0,-100.00,NW,308,0.0,5.0,94,0.00,,,0.08,0.000000,,2013-02-04 06:01:00,
2013-02-03 23:21:00,27.0,26.0,-100.00,SSE,168,0.0,4.0,96,0.00,,,0.08,0.000000,,2013-02-04 06:21:00,
2013-02-03 23:32:00,27.0,26.0,-100.00,SSE,168,0.0,4.0,96,0.00,,,0.08,0.000000,,2013-02-04 06:32:00,
2013-02-03 23:42:00,27.0,26.0,-100.00,SSE,168,0.0,4.0,96,0.00,,,0.08,0.000000,,2013-02-04 06:42:00,
2013-02-03 23:52:00,27.0,26.0,-100.00,SSE,168,0.0,4.0,96,0.00,,,0.08,0.000000,,2013-02-04 06:52:00,